Terminal Aerodrome Forecast
Issued by NWS

Home | Current Version | Previous Version | Graphics & Text | Print | Product List | Glossary On
Versions: 1 2 3 4 5 6 7 8 9 10 11 12 13 14 15 16
016
FTUS43 KTOP 221128
TAFMHK
TAF
KMHK 221128Z 2212/2312 24004KT P6SM VCSH BKN070
     FM221500 23009KT P6SM -RA VCTS OVC090CB
     FM222000 23010KT P6SM VCTS BKN070CB
     FM230600 29004KT P6SM VCSH OVC050=

USA.gov is the U.S. government's official web portal to all federal, state and local government web resources and services.